createdAt,value
2022-10-14T00:01:13.983Z,12.00
2022-10-14T00:03:42.383Z,11.90
2022-10-14T00:06:12.880Z,11.90
2022-10-14T00:08:43.203Z,11.80
2022-10-14T00:11:14.015Z,11.80
2022-10-14T00:13:42.120Z,11.80
2022-10-14T00:16:17.738Z,11.80
2022-10-14T00:18:45.941Z,11.80
2022-10-14T00:21:14.298Z,11.80
2022-10-14T00:23:43.934Z,11.80
2022-10-14T00:26:20.825Z,11.80
2022-10-14T00:28:49.416Z,11.80
2022-10-14T00:31:18.420Z,11.80
2022-10-14T00:33:47.146Z,11.80
2022-10-14T00:36:17.535Z,11.90
2022-10-14T00:38:47.451Z,11.90
2022-10-14T00:41:18.116Z,12.00
2022-10-14T00:43:56.186Z,12.00
2022-10-14T00:46:25.043Z,12.00
2022-10-14T00:48:53.713Z,12.00
2022-10-14T00:51:22.550Z,12.00
2022-10-14T00:53:52.477Z,12.00
2022-10-14T00:56:26.018Z,12.00
2022-10-14T00:58:54.648Z,12.00
2022-10-14T01:01:22.843Z,12.10
2022-10-14T01:03:52.077Z,12.10
2022-10-14T01:06:31.915Z,12.10
2022-10-14T01:09:08.780Z,12.10
2022-10-14T01:11:44.999Z,12.10
2022-10-14T01:14:22.621Z,12.00
2022-10-14T01:16:59.792Z,12.00
2022-10-14T01:19:54.030Z,12.00
2022-10-14T01:22:28.571Z,12.00
2022-10-14T01:25:08.528Z,12.00
2022-10-14T01:28:00.657Z,12.00
2022-10-14T01:30:33.275Z,12.00
2022-10-14T01:33:08.454Z,11.90
2022-10-14T01:35:45.380Z,11.90
2022-10-14T01:38:19.465Z,12.00
2022-10-14T01:40:51.449Z,11.90
2022-10-14T01:43:22.438Z,11.90
2022-10-14T01:45:53.181Z,11.90
2022-10-14T01:48:26.241Z,11.90
2022-10-14T01:50:56.406Z,11.90
2022-10-14T01:53:28.253Z,11.90
2022-10-14T01:55:58.416Z,11.80
2022-10-14T01:58:28.989Z,11.80
2022-10-14T02:00:58.666Z,11.80
2022-10-14T02:03:26.758Z,11.80
2022-10-14T02:06:02.183Z,11.80
2022-10-14T02:08:38.025Z,11.80
2022-10-14T02:11:10.098Z,11.80
2022-10-14T02:13:51.208Z,11.80
2022-10-14T02:16:28.213Z,11.90
2022-10-14T02:19:03.911Z,11.80
2022-10-14T02:21:38.309Z,11.80
2022-10-14T02:24:10.192Z,11.80
2022-10-14T02:26:39.854Z,11.90
2022-10-14T02:29:08.205Z,11.90
2022-10-14T02:31:40.807Z,11.90
2022-10-14T02:34:12.648Z,11.90
2022-10-14T02:36:42.342Z,11.90
2022-10-14T02:39:16.581Z,11.90
2022-10-14T02:41:44.789Z,12.00
2022-10-14T02:44:12.965Z,12.00
2022-10-14T02:46:43.867Z,11.90
2022-10-14T02:49:12.245Z,11.90
2022-10-14T02:51:40.582Z,11.90
2022-10-14T02:54:08.639Z,12.00
2022-10-14T02:56:36.719Z,11.90
2022-10-14T02:59:04.852Z,11.80
2022-10-14T03:01:37.342Z,11.80
2022-10-14T03:04:07.310Z,11.70
2022-10-14T03:06:35.653Z,11.70
2022-10-14T03:09:04.483Z,11.70
2022-10-14T03:11:33.121Z,11.70
2022-10-14T03:14:01.210Z,11.60
2022-10-14T03:16:29.307Z,11.60
2022-10-14T03:18:57.422Z,11.70
2022-10-14T03:21:26.926Z,11.70
2022-10-14T03:23:55.008Z,11.70
2022-10-14T03:26:23.907Z,11.70
2022-10-14T03:28:52.061Z,11.60
2022-10-14T03:31:20.156Z,11.60
2022-10-14T03:33:48.267Z,11.60
2022-10-14T03:36:16.481Z,11.50
2022-10-14T03:38:45.973Z,11.50
2022-10-14T03:41:14.063Z,11.50
2022-10-14T03:43:42.200Z,11.50
2022-10-14T03:46:10.330Z,11.60
2022-10-14T03:48:38.410Z,11.60
2022-10-14T03:51:06.473Z,11.60
2022-10-14T03:53:34.733Z,11.60
2022-10-14T03:56:04.270Z,11.60
2022-10-14T03:58:32.382Z,11.60
2022-10-14T04:01:00.436Z,11.60
2022-10-14T04:03:28.538Z,11.60
2022-10-14T04:05:56.756Z,11.70
2022-10-14T04:08:24.933Z,11.60
2022-10-14T04:10:54.231Z,11.70
2022-10-14T04:13:24.256Z,11.70
2022-10-14T04:15:52.326Z,11.70
2022-10-14T04:18:20.482Z,11.70
2022-10-14T04:20:48.885Z,11.70
2022-10-14T04:23:16.944Z,11.70
2022-10-14T04:25:45.006Z,11.70
2022-10-14T04:28:13.069Z,11.70
2022-10-14T04:30:42.918Z,11.70
2022-10-14T04:33:11.033Z,11.70
2022-10-14T04:35:39.102Z,11.70
2022-10-14T04:38:07.238Z,11.70
2022-10-14T04:40:35.308Z,11.70
2022-10-14T04:43:03.403Z,11.70
2022-10-14T04:45:31.514Z,11.70
2022-10-14T04:48:00.956Z,11.80
2022-10-14T04:50:29.203Z,11.80
2022-10-14T04:52:57.269Z,11.80
2022-10-14T04:55:25.372Z,11.80
2022-10-14T04:57:53.502Z,11.80
2022-10-14T05:00:21.799Z,11.90
2022-10-14T05:02:50.219Z,11.80
2022-10-14T05:05:19.701Z,11.90
2022-10-14T05:07:47.833Z,11.90
2022-10-14T05:10:16.034Z,11.90
2022-10-14T05:12:44.229Z,11.90
2022-10-14T05:15:12.789Z,11.90
2022-10-14T05:17:44.474Z,12.00
2022-10-14T05:20:13.414Z,12.00
2022-10-14T05:22:44.595Z,11.90
2022-10-14T05:25:13.042Z,11.90
2022-10-14T05:27:41.616Z,11.90
2022-10-14T05:30:10.928Z,11.90
2022-10-14T05:32:39.094Z,11.90
2022-10-14T05:35:07.495Z,11.90
2022-10-14T05:37:35.653Z,11.90
2022-10-14T05:40:05.768Z,11.90
2022-10-14T05:42:33.839Z,12.00
2022-10-14T05:45:01.930Z,12.00
2022-10-14T05:47:30.001Z,12.00
2022-10-14T05:49:58.795Z,12.00
2022-10-14T05:52:26.892Z,12.00
2022-10-14T05:54:55.361Z,12.00
2022-10-14T05:57:24.869Z,11.90
2022-10-14T05:59:52.966Z,11.90
2022-10-14T06:02:21.517Z,11.90
2022-10-14T06:04:49.725Z,11.90
2022-10-14T06:07:17.851Z,11.90
2022-10-14T06:09:45.992Z,11.90
2022-10-14T06:12:14.062Z,12.00
2022-10-14T06:14:43.569Z,12.00
2022-10-14T06:17:11.737Z,12.00
2022-10-14T06:19:39.840Z,12.00
2022-10-14T06:22:07.892Z,12.00
2022-10-14T06:24:36.032Z,12.00
2022-10-14T06:27:04.325Z,12.10
2022-10-14T06:29:37.872Z,12.10
2022-10-14T06:32:08.764Z,12.20
2022-10-14T06:34:37.078Z,12.20
2022-10-14T06:37:05.198Z,12.20
2022-10-14T06:39:33.327Z,12.20
2022-10-14T06:42:03.156Z,12.20
2022-10-14T06:44:31.312Z,12.30
2022-10-14T06:46:59.368Z,12.30
2022-10-14T06:49:28.905Z,12.30
2022-10-14T06:51:56.989Z,12.30
2022-10-14T06:54:25.123Z,12.30
2022-10-14T06:56:53.224Z,12.30
2022-10-14T06:59:21.333Z,12.30
2022-10-14T07:01:49.468Z,12.30
2022-10-14T07:04:17.653Z,12.30
2022-10-14T07:06:47.088Z,12.30
2022-10-14T07:09:15.229Z,12.30
2022-10-14T07:11:43.887Z,12.30
2022-10-14T07:14:11.989Z,12.30
2022-10-14T07:16:40.177Z,12.40
2022-10-14T07:19:08.228Z,12.30
2022-10-14T07:21:36.424Z,12.40
2022-10-14T07:24:06.359Z,12.40
2022-10-14T07:26:34.732Z,12.40
2022-10-14T07:29:05.137Z,12.50
2022-10-14T07:31:33.718Z,12.40
2022-10-14T07:34:02.369Z,12.40
2022-10-14T07:36:31.753Z,12.40
2022-10-14T07:39:01.065Z,12.40
2022-10-14T07:41:31.055Z,12.40
2022-10-14T07:44:02.593Z,12.40
2022-10-14T07:46:32.469Z,12.50
2022-10-14T07:49:02.743Z,12.50
2022-10-14T07:51:31.149Z,12.50
2022-10-14T07:54:01.269Z,12.60
2022-10-14T07:56:30.789Z,12.60
2022-10-14T07:59:00.293Z,12.50
2022-10-14T08:01:28.782Z,12.50
2022-10-14T08:03:56.969Z,12.60
2022-10-14T08:06:25.498Z,12.60
2022-10-14T08:08:54.210Z,12.70
2022-10-14T08:11:24.935Z,12.70
2022-10-14T08:13:55.256Z,12.70
2022-10-14T08:16:25.592Z,12.70
2022-10-14T08:18:56.268Z,12.70
2022-10-14T08:21:25.072Z,12.60
2022-10-14T08:23:54.910Z,12.60
2022-10-14T08:26:26.640Z,12.70
2022-10-14T08:28:56.405Z,12.60
2022-10-14T08:31:25.383Z,12.70
2022-10-14T08:33:53.445Z,12.70
2022-10-14T08:36:22.888Z,12.60
2022-10-14T08:38:54.141Z,12.70
2022-10-14T08:41:49.864Z,12.70
2022-10-14T08:44:24.186Z,12.70
2022-10-14T08:46:55.136Z,12.70
2022-10-14T08:49:30.234Z,12.70
2022-10-14T08:52:02.061Z,12.70
2022-10-14T08:54:37.493Z,12.80
2022-10-14T08:57:07.219Z,12.70
2022-10-14T08:59:41.684Z,12.80
2022-10-14T09:02:30.537Z,12.80
2022-10-14T09:05:02.406Z,12.90
2022-10-14T09:07:32.884Z,12.90
2022-10-14T09:10:06.882Z,12.90
2022-10-14T09:12:37.569Z,12.80
2022-10-14T09:15:15.251Z,12.80
2022-10-14T09:17:47.499Z,12.80
2022-10-14T09:20:21.094Z,12.80
2022-10-14T09:23:00.081Z,12.90
2022-10-14T09:25:30.203Z,13.00
2022-10-14T09:27:58.377Z,13.10
2022-10-14T09:30:31.733Z,13.10
2022-10-14T09:33:00.934Z,13.00
2022-10-14T09:35:33.484Z,13.00
2022-10-14T09:38:01.697Z,13.00
2022-10-14T09:40:33.637Z,13.10
2022-10-14T09:43:06.790Z,13.10
2022-10-14T09:45:53.794Z,13.10
2022-10-14T09:48:32.830Z,13.10
2022-10-14T09:51:03.086Z,13.10
2022-10-14T09:53:34.024Z,13.20
2022-10-14T09:56:04.165Z,13.20
2022-10-14T09:58:39.677Z,13.20
2022-10-14T10:01:16.275Z,13.30
2022-10-14T10:03:46.154Z,13.30
2022-10-14T10:06:16.875Z,13.20
2022-10-14T10:08:58.166Z,13.20
2022-10-14T10:11:33.407Z,13.20
2022-10-14T10:14:17.887Z,13.30
2022-10-14T10:16:47.456Z,13.30
2022-10-14T10:19:32.312Z,13.30
2022-10-14T10:22:22.937Z,13.30
2022-10-14T10:24:52.992Z,13.40
2022-10-14T10:27:25.167Z,13.40
2022-10-14T10:29:55.840Z,13.50
2022-10-14T10:32:31.913Z,13.40
2022-10-14T10:35:15.089Z,13.40
2022-10-14T10:37:57.060Z,13.50
2022-10-14T10:40:37.776Z,13.40
2022-10-14T10:43:38.655Z,13.50
2022-10-14T10:46:18.991Z,13.40
2022-10-14T10:48:51.263Z,13.40
2022-10-14T10:51:30.011Z,13.40
2022-10-14T10:54:07.909Z,13.40
2022-10-14T10:56:43.678Z,13.40
2022-10-14T10:59:30.389Z,13.40
2022-10-14T11:02:18.136Z,13.40
2022-10-14T11:04:52.190Z,13.50
2022-10-14T11:07:42.510Z,13.40
2022-10-14T11:10:38.900Z,13.50
2022-10-14T11:13:18.452Z,13.50
2022-10-14T11:15:51.826Z,13.50
2022-10-14T11:18:30.427Z,13.50
2022-10-14T11:21:10.899Z,13.50
2022-10-14T11:23:59.961Z,13.50
2022-10-14T11:26:47.895Z,13.50
2022-10-14T11:29:37.384Z,13.50
2022-10-14T11:32:15.358Z,13.50
2022-10-14T11:34:48.446Z,13.50
2022-10-14T11:37:28.089Z,13.50
2022-10-14T11:40:02.563Z,13.50
2022-10-14T11:42:47.840Z,13.40
2022-10-14T11:45:36.427Z,13.40
2022-10-14T11:48:14.653Z,13.40
2022-10-14T11:50:47.501Z,13.40
2022-10-14T11:53:21.401Z,13.40
2022-10-14T11:55:55.878Z,13.40
2022-10-14T11:58:27.938Z,13.40
2022-10-14T12:01:01.286Z,13.40
2022-10-14T12:03:44.940Z,13.40
2022-10-14T12:06:17.522Z,13.40
2022-10-14T12:08:51.573Z,13.40
2022-10-14T12:11:29.552Z,13.40
2022-10-14T12:14:06.239Z,13.40
2022-10-14T12:16:34.861Z,13.40
2022-10-14T12:19:03.457Z,13.40
2022-10-14T12:21:39.298Z,13.40
2022-10-14T12:24:14.503Z,13.40
2022-10-14T12:26:52.877Z,13.30
2022-10-14T12:29:23.925Z,13.30
2022-10-14T12:32:08.605Z,13.30
2022-10-14T12:34:41.274Z,13.30
2022-10-14T12:37:43.100Z,13.30
2022-10-14T12:40:28.894Z,13.20
2022-10-14T12:43:15.661Z,13.30
2022-10-14T12:46:11.331Z,13.40
2022-10-14T12:48:47.973Z,13.40
2022-10-14T12:51:18.866Z,13.40
2022-10-14T12:54:06.222Z,13.40
2022-10-14T12:56:39.918Z,13.40
2022-10-14T12:59:11.021Z,13.40
2022-10-14T13:01:44.168Z,13.50
2022-10-14T13:04:20.250Z,13.50
2022-10-14T13:07:46.181Z,13.50
2022-10-14T13:10:50.513Z,13.50
2022-10-14T13:14:01.424Z,13.50
2022-10-14T13:17:05.860Z,13.50
2022-10-14T13:19:45.168Z,13.40
2022-10-14T13:22:42.034Z,13.40
2022-10-14T13:25:18.299Z,13.50
2022-10-14T13:28:07.690Z,13.50
2022-10-14T13:31:01.467Z,13.50
2022-10-14T13:33:38.549Z,13.50
2022-10-14T13:36:16.766Z,13.60
2022-10-14T13:38:53.105Z,13.60
2022-10-14T13:41:29.925Z,13.70
2022-10-14T13:44:00.812Z,13.70
2022-10-14T13:46:35.766Z,13.70
2022-10-14T13:49:06.619Z,13.70
2022-10-14T13:51:46.354Z,13.70
2022-10-14T13:54:20.899Z,13.70
2022-10-14T14:02:40.150Z,13.70
2022-10-14T14:05:15.508Z,13.70
2022-10-14T14:10:38.916Z,13.70
2022-10-14T14:13:14.334Z,13.80
2022-10-14T14:15:43.535Z,13.80
2022-10-14T14:18:34.073Z,13.80
2022-10-14T14:21:14.354Z,13.80
2022-10-14T14:23:51.053Z,13.70
2022-10-14T14:26:20.024Z,13.70
2022-10-14T14:28:49.347Z,13.80
2022-10-14T14:31:20.461Z,13.80
2022-10-14T14:33:49.930Z,13.80
2022-10-14T14:36:27.892Z,13.80
2022-10-14T14:39:08.074Z,13.80
2022-10-14T14:41:36.146Z,13.70
2022-10-14T14:44:24.750Z,13.70
2022-10-14T14:46:57.947Z,13.70
2022-10-14T14:49:30.173Z,13.70
2022-10-14T14:51:59.069Z,13.80
2022-10-14T14:54:28.783Z,13.80
2022-10-14T14:57:03.298Z,13.70
2022-10-14T14:59:36.194Z,13.70
2022-10-14T15:02:13.395Z,13.70
2022-10-14T15:04:42.938Z,13.80
2022-10-14T15:07:21.117Z,13.80
2022-10-14T15:09:52.602Z,13.70
2022-10-14T15:12:23.494Z,13.80
2022-10-14T15:14:53.584Z,13.80
2022-10-14T15:17:31.692Z,13.70
2022-10-14T15:20:22.050Z,13.70
2022-10-14T15:22:51.795Z,13.80
2022-10-14T15:25:31.224Z,13.80
2022-10-14T15:28:00.385Z,13.90
2022-10-14T15:30:35.097Z,14.00
2022-10-14T15:33:11.971Z,14.00
2022-10-14T15:35:41.695Z,14.00
2022-10-14T15:38:16.066Z,14.00
2022-10-14T15:40:45.148Z,13.90
2022-10-14T15:43:17.498Z,13.90
2022-10-14T15:46:08.385Z,13.90
2022-10-14T15:48:36.637Z,14.00
2022-10-14T15:51:06.814Z,13.90
2022-10-14T15:53:35.067Z,13.90
2022-10-14T15:56:03.132Z,14.00
2022-10-14T15:58:33.871Z,13.90
2022-10-14T16:01:02.694Z,13.80
2022-10-14T16:03:34.790Z,13.90
2022-10-14T16:06:07.433Z,14.00
2022-10-14T16:08:35.550Z,13.90
2022-10-14T16:11:04.750Z,13.90
2022-10-14T16:13:32.895Z,13.90
2022-10-14T16:16:04.718Z,13.90
2022-10-14T16:18:32.727Z,13.90
2022-10-14T16:21:00.774Z,13.90
2022-10-14T16:23:33.342Z,13.90
2022-10-14T16:26:01.981Z,13.80
2022-10-14T16:28:30.115Z,13.90
2022-10-14T16:31:00.547Z,13.90
2022-10-14T16:33:28.633Z,13.90
2022-10-14T16:35:57.982Z,13.90
2022-10-14T16:38:26.031Z,13.90
2022-10-14T16:41:00.252Z,14.00
2022-10-14T16:43:29.599Z,14.00
2022-10-14T16:45:59.909Z,14.00
2022-10-14T16:48:29.312Z,13.90
2022-10-14T16:50:57.671Z,14.00
2022-10-14T16:53:45.195Z,13.90
2022-10-14T16:56:35.429Z,13.90
2022-10-14T16:59:03.859Z,13.90
2022-10-14T17:01:32.351Z,13.90
2022-10-14T17:04:00.519Z,13.90
2022-10-14T17:06:28.627Z,13.90
2022-10-14T17:08:56.901Z,14.00
2022-10-14T17:11:28.184Z,14.00
2022-10-14T17:13:57.386Z,14.00
2022-10-14T17:16:26.394Z,14.00
2022-10-14T17:18:54.459Z,14.10
2022-10-14T17:21:22.754Z,14.00
2022-10-14T17:23:50.970Z,14.10
2022-10-14T17:26:19.924Z,14.10
2022-10-14T17:28:50.693Z,14.10
2022-10-14T17:31:22.592Z,14.20
2022-10-14T17:33:51.229Z,14.30
2022-10-14T17:36:20.313Z,14.30
2022-10-14T17:38:50.783Z,14.30
2022-10-14T17:41:20.244Z,14.20
2022-10-14T17:43:50.218Z,14.10
2022-10-14T17:46:21.320Z,14.10
2022-10-14T17:48:51.372Z,14.00
2022-10-14T17:51:20.317Z,14.00
2022-10-14T17:53:48.905Z,14.00
2022-10-14T17:56:17.127Z,14.00
2022-10-14T17:58:45.203Z,13.90
2022-10-14T18:01:16.325Z,14.00
2022-10-14T18:03:45.672Z,13.90
2022-10-14T18:06:16.639Z,14.00
2022-10-14T18:08:46.293Z,14.00
2022-10-14T18:11:14.524Z,14.00
2022-10-14T18:13:42.579Z,14.00
2022-10-14T18:16:13.277Z,14.00
2022-10-14T18:18:43.196Z,14.00
2022-10-14T18:21:11.887Z,14.00
2022-10-14T18:23:41.599Z,14.00
2022-10-14T18:26:13.456Z,14.00
2022-10-14T18:28:45.121Z,14.00
2022-10-14T18:31:17.451Z,14.00
2022-10-14T18:33:48.473Z,13.90
2022-10-14T18:36:18.731Z,13.90
2022-10-14T18:38:52.108Z,14.00
2022-10-14T18:41:20.785Z,13.90
2022-10-14T18:43:49.202Z,14.00
2022-10-14T18:46:18.884Z,13.90
2022-10-14T18:48:50.413Z,13.90
2022-10-14T18:51:20.358Z,13.90
2022-10-14T18:53:49.653Z,13.90
2022-10-14T18:56:20.620Z,13.90
2022-10-14T18:58:50.887Z,13.90
2022-10-14T19:01:20.245Z,13.90
2022-10-14T19:03:50.994Z,14.00
2022-10-14T19:06:21.090Z,14.00
2022-10-14T19:08:50.167Z,13.90
2022-10-14T19:11:20.707Z,13.90
2022-10-14T19:13:50.543Z,13.80
2022-10-14T19:16:20.091Z,13.80
2022-10-14T19:18:53.422Z,13.80
2022-10-14T19:21:22.514Z,13.70
2022-10-14T19:23:51.263Z,13.70
2022-10-14T19:26:20.873Z,13.70
2022-10-14T19:28:49.851Z,13.70
2022-10-14T19:31:20.819Z,13.60
2022-10-14T19:33:50.405Z,13.60
2022-10-14T19:36:20.234Z,13.70
2022-10-14T19:38:52.138Z,13.70
2022-10-14T19:41:20.442Z,13.60
2022-10-14T19:43:48.602Z,13.50
2022-10-14T19:46:16.889Z,13.50
2022-10-14T19:48:44.977Z,13.40
2022-10-14T19:51:14.386Z,13.40
2022-10-14T19:53:42.723Z,13.40
2022-10-14T19:56:12.442Z,13.40
2022-10-14T19:58:44.702Z,13.40
2022-10-14T20:01:15.164Z,13.40
2022-10-14T20:03:43.824Z,13.40
2022-10-14T20:06:14.481Z,13.40
2022-10-14T20:08:43.994Z,13.30
2022-10-14T20:11:13.507Z,13.30
2022-10-14T20:13:41.718Z,13.30
2022-10-14T20:16:12.734Z,13.20
2022-10-14T20:18:41.106Z,13.30
2022-10-14T20:21:12.192Z,13.30
2022-10-14T20:23:42.539Z,13.20
2022-10-14T20:26:14.740Z,13.20
2022-10-14T20:28:43.283Z,13.30
2022-10-14T20:31:13.162Z,13.30
2022-10-14T20:33:41.379Z,13.30
2022-10-14T20:36:13.095Z,13.40
2022-10-14T20:38:43.257Z,13.40
2022-10-14T20:41:15.272Z,13.30
2022-10-14T20:43:45.534Z,13.30
2022-10-14T20:46:14.334Z,13.20
2022-10-14T20:48:42.402Z,13.20
2022-10-14T20:51:12.649Z,13.20
2022-10-14T20:53:42.657Z,13.20
2022-10-14T20:56:13.241Z,13.30
2022-10-14T20:58:41.850Z,13.30
2022-10-14T21:01:11.662Z,13.30
2022-10-14T21:03:40.676Z,13.30
2022-10-14T21:06:10.273Z,13.40
2022-10-14T21:08:42.910Z,13.40
2022-10-14T21:11:15.146Z,13.50
2022-10-14T21:13:45.799Z,13.50
2022-10-14T21:16:15.942Z,13.50
2022-10-14T21:18:47.042Z,13.40
2022-10-14T21:21:16.860Z,13.40
2022-10-14T21:23:45.403Z,13.40
2022-10-14T21:26:15.127Z,13.40
2022-10-14T21:28:43.201Z,13.50
2022-10-14T21:31:15.925Z,13.40
2022-10-14T21:33:47.067Z,13.30
2022-10-14T21:36:16.785Z,13.40
2022-10-14T21:38:45.011Z,13.30
2022-10-14T21:41:14.546Z,13.30
2022-10-14T21:43:42.948Z,13.30
2022-10-14T21:46:13.599Z,13.30
2022-10-14T21:48:42.953Z,13.30
2022-10-14T21:51:12.755Z,13.30
2022-10-14T21:53:42.518Z,13.30
2022-10-14T21:56:11.724Z,13.40
2022-10-14T21:58:42.588Z,13.40
2022-10-14T22:01:14.052Z,13.40
2022-10-14T22:03:43.258Z,13.50
2022-10-14T22:06:14.107Z,13.50
2022-10-14T22:08:45.392Z,13.60
2022-10-14T22:11:18.052Z,13.50
2022-10-14T22:13:48.121Z,13.60
2022-10-14T22:16:16.986Z,13.60
2022-10-14T22:18:46.845Z,13.50
2022-10-14T22:21:17.105Z,13.50
2022-10-14T22:23:45.194Z,13.50
2022-10-14T22:26:15.466Z,13.60
2022-10-14T22:28:44.137Z,13.70
2022-10-14T22:31:16.009Z,13.60
2022-10-14T22:33:44.293Z,13.50
2022-10-14T22:36:19.352Z,13.50
2022-10-14T22:38:52.080Z,13.50
2022-10-14T22:41:20.732Z,13.50
2022-10-14T22:43:50.358Z,13.50
2022-10-14T22:46:22.129Z,13.50
2022-10-14T22:48:52.036Z,13.50
2022-10-14T22:51:20.939Z,13.50
2022-10-14T22:53:49.575Z,13.60
2022-10-14T22:56:22.540Z,13.60
2022-10-14T22:58:54.194Z,13.60
2022-10-14T23:01:27.724Z,13.60
2022-10-14T23:03:57.892Z,13.60
2022-10-14T23:06:26.743Z,13.50
2022-10-14T23:08:55.418Z,13.50
2022-10-14T23:11:25.576Z,13.50
2022-10-14T23:13:54.308Z,13.60
2022-10-14T23:16:25.585Z,13.60
2022-10-14T23:18:54.420Z,13.60
2022-10-14T23:21:25.497Z,13.60
2022-10-14T23:23:54.967Z,13.60
2022-10-14T23:26:28.679Z,13.60
2022-10-14T23:29:00.617Z,13.50
2022-10-14T23:31:31.646Z,13.60
2022-10-14T23:34:00.774Z,13.60
2022-10-14T23:36:29.474Z,13.50
2022-10-14T23:38:57.688Z,13.50
2022-10-14T23:41:26.321Z,13.50
2022-10-14T23:43:56.228Z,13.50
2022-10-14T23:46:25.270Z,13.50
2022-10-14T23:49:07.369Z,13.50
2022-10-14T23:51:42.675Z,13.50
2022-10-14T23:54:10.739Z,13.50
2022-10-14T23:56:38.868Z,13.50
2022-10-14T23:59:06.910Z,13.50
